createdAt,value
2022-07-29T00:00:54.995Z,21.79
2022-07-29T00:02:56.967Z,21.84
2022-07-29T00:04:59.992Z,21.86
2022-07-29T00:07:01.758Z,21.89
2022-07-29T00:09:03.798Z,21.90
2022-07-29T00:11:06.110Z,21.86
2022-07-29T00:13:09.066Z,21.84
2022-07-29T00:15:11.166Z,21.86
2022-07-29T00:17:14.885Z,21.89
2022-07-29T00:19:22.309Z,21.92
2022-07-29T00:21:25.088Z,21.92
2022-07-29T00:23:26.904Z,21.92
2022-07-29T00:25:28.575Z,21.90
2022-07-29T00:27:30.258Z,21.94
2022-07-29T00:29:34.181Z,21.99
2022-07-29T00:31:36.584Z,22.05
2022-07-29T00:33:38.398Z,22.09
2022-07-29T00:35:45.959Z,21.90
2022-07-29T00:37:47.777Z,21.74
2022-07-29T00:39:49.609Z,21.60
2022-07-29T00:41:51.353Z,21.28
2022-07-29T00:43:53.064Z,21.25
2022-07-29T00:45:54.827Z,21.34
2022-07-29T00:47:56.848Z,21.41
2022-07-29T00:49:58.784Z,21.42
2022-07-29T00:52:03.299Z,21.28
2022-07-29T00:54:05.918Z,20.71
2022-07-29T00:56:07.632Z,20.67
2022-07-29T00:58:09.874Z,20.56
2022-07-29T01:00:14.848Z,20.62
2022-07-29T01:02:16.692Z,20.61
2022-07-29T01:04:18.768Z,20.39
2022-07-29T01:06:21.270Z,20.35
2022-07-29T01:08:24.026Z,20.02
2022-07-29T01:10:26.116Z,19.99
2022-07-29T01:12:28.619Z,20.08
2022-07-29T01:14:31.030Z,19.94
2022-07-29T01:16:34.021Z,19.96
2022-07-29T01:18:40.724Z,19.95
2022-07-29T01:21:07.255Z,20.04
2022-07-29T01:23:44.144Z,20.16
2022-07-29T01:26:01.761Z,20.36
2022-07-29T01:28:04.656Z,20.51
2022-07-29T01:30:07.489Z,20.66
2022-07-29T01:32:22.579Z,20.82
2022-07-29T01:34:46.919Z,20.96
2022-07-29T01:36:57.728Z,21.03
2022-07-29T01:39:05.917Z,21.11
2022-07-29T01:41:10.979Z,21.16
2022-07-29T01:43:15.077Z,21.23
2022-07-29T01:45:21.036Z,21.29
2022-07-29T01:47:26.934Z,21.37
2022-07-29T01:49:31.471Z,21.41
2022-07-29T01:51:39.563Z,21.42
2022-07-29T01:54:05.235Z,21.35
2022-07-29T01:56:08.103Z,21.31
2022-07-29T01:58:10.099Z,21.31
2022-07-29T02:00:12.495Z,21.32
2022-07-29T02:02:16.613Z,21.37
2022-07-29T02:04:29.365Z,21.42
2022-07-29T02:06:32.755Z,21.46
2022-07-29T02:08:34.899Z,21.47
2022-07-29T02:10:37.282Z,21.52
2022-07-29T02:12:40.256Z,21.56
2022-07-29T02:14:46.070Z,21.59
2022-07-29T02:16:51.290Z,21.57
2022-07-29T02:18:54.890Z,21.55
2022-07-29T02:20:56.489Z,21.54
2022-07-29T02:23:00.744Z,21.54
2022-07-29T02:25:03.179Z,21.50
2022-07-29T02:27:05.621Z,21.47
2022-07-29T02:29:07.967Z,21.46
2022-07-29T02:31:10.618Z,21.48
2022-07-29T02:33:15.087Z,21.51
2022-07-29T02:35:17.244Z,21.49
2022-07-29T02:37:19.626Z,21.48
2022-07-29T02:39:21.648Z,21.48
2022-07-29T02:41:33.025Z,21.51
2022-07-29T02:43:35.770Z,21.55
2022-07-29T02:45:37.685Z,21.58
2022-07-29T02:47:44.890Z,21.62
2022-07-29T02:50:00.845Z,21.64
2022-07-29T02:52:25.000Z,21.66
2022-07-29T02:54:40.465Z,21.48
2022-07-29T02:56:43.897Z,21.11
2022-07-29T02:58:51.082Z,20.87
2022-07-29T03:00:53.776Z,20.83
2022-07-29T03:02:57.966Z,20.82
2022-07-29T03:05:01.144Z,20.86
2022-07-29T03:07:03.391Z,20.79
2022-07-29T03:09:10.613Z,20.73
2022-07-29T03:11:15.261Z,20.67
2022-07-29T03:13:17.236Z,20.59
2022-07-29T03:15:19.698Z,20.56
2022-07-29T03:17:22.614Z,20.58
2022-07-29T03:19:24.439Z,20.65
2022-07-29T03:21:26.101Z,20.77
2022-07-29T03:23:28.977Z,20.86
2022-07-29T03:25:36.989Z,20.98
2022-07-29T03:27:38.656Z,21.07
2022-07-29T03:29:40.279Z,21.10
2022-07-29T03:31:45.293Z,21.07
2022-07-29T03:33:48.172Z,21.06
2022-07-29T03:35:49.810Z,21.04
2022-07-29T03:37:51.561Z,21.06
2022-07-29T03:39:56.421Z,21.05
2022-07-29T03:41:59.753Z,21.03
2022-07-29T03:44:01.936Z,21.06
2022-07-29T03:46:05.315Z,21.11
2022-07-29T03:48:14.607Z,21.10
2022-07-29T03:50:16.796Z,21.08
2022-07-29T03:52:18.665Z,21.07
2022-07-29T03:54:21.427Z,21.10
2022-07-29T03:56:24.183Z,21.16
2022-07-29T03:58:27.618Z,21.19
2022-07-29T04:00:29.893Z,21.23
2022-07-29T04:02:33.019Z,21.00
2022-07-29T04:04:37.770Z,20.69
2022-07-29T04:06:43.766Z,20.37
2022-07-29T04:08:45.416Z,20.05
2022-07-29T04:10:48.534Z,19.94
2022-07-29T04:12:50.874Z,20.10
2022-07-29T04:14:52.556Z,20.09
2022-07-29T04:16:54.175Z,20.14
2022-07-29T04:18:55.826Z,20.34
2022-07-29T04:21:00.101Z,20.55
2022-07-29T04:23:01.758Z,20.75
2022-07-29T04:25:04.367Z,20.94
2022-07-29T04:27:06.345Z,21.14
2022-07-29T04:29:07.976Z,21.23
2022-07-29T04:31:10.498Z,21.37
2022-07-29T04:33:13.046Z,21.48
2022-07-29T04:35:14.696Z,21.58
2022-07-29T04:37:16.349Z,21.66
2022-07-29T04:39:22.794Z,21.77
2022-07-29T04:41:32.552Z,21.82
2022-07-29T04:43:36.723Z,21.84
2022-07-29T04:45:38.584Z,21.87
2022-07-29T04:47:41.948Z,21.84
2022-07-29T04:49:43.541Z,21.85
2022-07-29T04:51:45.154Z,21.97
2022-07-29T04:53:46.829Z,22.02
2022-07-29T04:55:48.565Z,22.09
2022-07-29T04:57:50.186Z,22.04
2022-07-29T04:59:51.826Z,21.84
2022-07-29T05:01:53.525Z,21.77
2022-07-29T05:04:00.180Z,21.76
2022-07-29T05:06:02.355Z,21.80
2022-07-29T05:08:04.413Z,21.88
2022-07-29T05:10:06.555Z,21.95
2022-07-29T05:12:08.402Z,22.06
2022-07-29T05:14:10.142Z,22.17
2022-07-29T05:16:11.935Z,22.26
2022-07-29T05:18:13.843Z,22.35
2022-07-29T05:20:15.549Z,22.40
2022-07-29T05:22:17.217Z,22.46
2022-07-29T05:24:19.382Z,22.58
2022-07-29T05:26:21.346Z,22.72
2022-07-29T05:28:23.322Z,22.81
2022-07-29T05:30:25.088Z,22.89
2022-07-29T05:32:26.768Z,22.95
2022-07-29T05:34:28.440Z,22.98
2022-07-29T05:36:30.160Z,23.05
2022-07-29T05:38:31.814Z,23.15
2022-07-29T05:40:33.594Z,23.16
2022-07-29T05:42:35.689Z,23.06
2022-07-29T05:44:38.875Z,23.01
2022-07-29T05:46:40.724Z,23.04
2022-07-29T05:48:42.686Z,23.11
2022-07-29T05:50:44.502Z,23.25
2022-07-29T05:52:46.214Z,23.42
2022-07-29T05:54:48.295Z,23.51
2022-07-29T05:56:49.970Z,23.58
2022-07-29T05:58:52.569Z,23.64
2022-07-29T06:00:54.253Z,23.68
2022-07-29T06:02:55.887Z,23.77
2022-07-29T06:04:57.668Z,23.90
2022-07-29T06:06:59.381Z,24.00
2022-07-29T06:09:02.023Z,23.80
2022-07-29T06:11:14.665Z,23.66
2022-07-29T06:13:17.118Z,23.48
2022-07-29T06:15:18.943Z,23.45
2022-07-29T06:17:20.648Z,23.25
2022-07-29T06:19:22.439Z,23.30
2022-07-29T06:21:24.129Z,23.46
2022-07-29T06:23:25.786Z,23.63
2022-07-29T06:25:30.220Z,23.76
2022-07-29T06:27:32.012Z,23.91
2022-07-29T06:29:33.669Z,23.85
2022-07-29T06:31:35.503Z,23.71
2022-07-29T06:33:37.313Z,23.69
2022-07-29T06:35:42.139Z,23.79
2022-07-29T06:37:44.332Z,23.94
2022-07-29T06:39:48.720Z,24.05
2022-07-29T06:41:51.583Z,24.23
2022-07-29T06:43:54.606Z,24.46
2022-07-29T06:46:00.523Z,24.42
2022-07-29T06:48:02.258Z,24.56
2022-07-29T06:50:05.412Z,24.63
2022-07-29T06:52:09.528Z,24.69
2022-07-29T06:54:11.285Z,24.66
2022-07-29T06:56:15.183Z,24.61
2022-07-29T06:58:18.928Z,24.45
2022-07-29T07:00:20.805Z,24.56
2022-07-29T07:02:22.493Z,24.41
2022-07-29T07:04:24.296Z,24.33
2022-07-29T07:06:25.990Z,24.19
2022-07-29T07:08:27.737Z,24.22
2022-07-29T07:10:29.401Z,24.44
2022-07-29T07:12:31.075Z,24.72
2022-07-29T07:14:33.019Z,24.96
2022-07-29T07:16:34.668Z,25.20
2022-07-29T07:18:36.353Z,25.41
2022-07-29T07:20:38.189Z,25.41
2022-07-29T07:22:39.815Z,25.49
2022-07-29T07:24:41.450Z,25.49
2022-07-29T07:26:43.196Z,25.58
2022-07-29T07:28:44.911Z,25.67
2022-07-29T07:30:46.774Z,25.60
2022-07-29T07:32:48.668Z,25.62
2022-07-29T07:34:50.310Z,25.69
2022-07-29T07:36:51.944Z,25.77
2022-07-29T07:38:53.619Z,25.90
2022-07-29T07:40:55.264Z,26.03
2022-07-29T07:42:56.965Z,26.12
2022-07-29T07:45:13.016Z,26.21
2022-07-29T07:47:21.358Z,26.18
2022-07-29T07:49:24.373Z,25.68
2022-07-29T07:51:26.098Z,25.74
2022-07-29T07:53:27.834Z,25.91
2022-07-29T07:55:42.438Z,26.11
2022-07-29T07:57:51.389Z,26.25
2022-07-29T07:59:53.068Z,26.39
2022-07-29T08:01:55.802Z,26.49
2022-07-29T08:03:57.977Z,26.13
2022-07-29T08:05:59.652Z,26.15
2022-07-29T08:08:01.363Z,26.38
2022-07-29T08:10:03.608Z,26.59
2022-07-29T08:12:06.708Z,26.75
2022-07-29T08:14:08.404Z,26.91
2022-07-29T08:16:13.445Z,27.07
2022-07-29T08:18:15.289Z,27.17
2022-07-29T08:20:16.950Z,27.29
2022-07-29T08:22:20.250Z,27.37
2022-07-29T08:24:40.837Z,27.34
2022-07-29T08:26:43.507Z,27.10
2022-07-29T08:28:46.850Z,27.13
2022-07-29T08:30:48.731Z,27.28
2022-07-29T08:32:54.993Z,27.37
2022-07-29T08:34:57.582Z,27.47
2022-07-29T08:36:59.760Z,27.56
2022-07-29T08:39:02.766Z,27.57
2022-07-29T08:41:04.393Z,27.66
2022-07-29T08:43:10.082Z,27.72
2022-07-29T08:45:11.894Z,27.81
2022-07-29T08:47:15.186Z,27.87
2022-07-29T08:49:17.197Z,27.73
2022-07-29T08:51:20.688Z,27.60
2022-07-29T08:53:22.994Z,27.70
2022-07-29T08:55:24.824Z,27.87
2022-07-29T08:57:26.712Z,27.91
2022-07-29T08:59:31.276Z,28.03
2022-07-29T09:01:35.740Z,28.05
2022-07-29T09:03:40.046Z,28.22
2022-07-29T09:05:47.859Z,28.28
2022-07-29T09:07:51.148Z,28.42
2022-07-29T09:09:52.941Z,28.55
2022-07-29T09:11:58.116Z,28.67
2022-07-29T09:14:00.389Z,28.84
2022-07-29T09:16:08.643Z,28.97
2022-07-29T09:18:20.341Z,29.08
2022-07-29T09:20:51.150Z,29.29
2022-07-29T09:22:54.583Z,29.39
2022-07-29T09:24:56.404Z,29.47
2022-07-29T09:26:58.130Z,29.39
2022-07-29T09:29:00.689Z,29.44
2022-07-29T09:31:03.543Z,29.50
2022-07-29T09:33:05.211Z,29.39
2022-07-29T09:35:36.173Z,28.93
2022-07-29T09:37:37.817Z,29.03
2022-07-29T09:39:46.737Z,28.78
2022-07-29T09:41:54.223Z,28.95
2022-07-29T09:43:57.479Z,29.17
2022-07-29T09:46:12.304Z,29.38
2022-07-29T09:48:19.871Z,29.56
2022-07-29T09:50:24.982Z,29.70
2022-07-29T09:52:27.965Z,29.71
2022-07-29T09:54:29.638Z,29.83
2022-07-29T09:56:41.573Z,29.88
2022-07-29T09:58:43.181Z,29.94
2022-07-29T10:00:46.974Z,29.77
2022-07-29T10:02:49.293Z,29.71
2022-07-29T10:04:52.078Z,29.42
2022-07-29T10:07:04.798Z,29.35
2022-07-29T10:09:11.951Z,29.30
2022-07-29T10:11:20.323Z,29.46
2022-07-29T10:13:22.075Z,29.76
2022-07-29T10:15:27.788Z,29.85
2022-07-29T10:17:29.524Z,29.78
2022-07-29T10:19:32.465Z,29.96
2022-07-29T10:21:35.317Z,29.99
2022-07-29T10:23:46.817Z,30.16
2022-07-29T10:25:49.133Z,30.07
2022-07-29T10:27:54.627Z,29.96
2022-07-29T10:29:56.342Z,29.96
2022-07-29T10:32:22.775Z,30.08
2022-07-29T10:34:46.469Z,30.29
2022-07-29T10:37:35.359Z,30.20
2022-07-29T10:40:31.966Z,30.17
2022-07-29T10:42:41.161Z,30.43
2022-07-29T10:44:44.243Z,30.24
2022-07-29T10:46:46.382Z,30.38
2022-07-29T10:49:11.421Z,30.62
2022-07-29T10:51:16.781Z,30.75
2022-07-29T10:53:19.859Z,30.60
2022-07-29T10:55:39.447Z,30.67
2022-07-29T10:58:26.361Z,30.61
2022-07-29T11:00:30.510Z,30.54
2022-07-29T11:02:41.763Z,30.68
2022-07-29T11:04:45.231Z,30.81
2022-07-29T11:07:15.155Z,31.08
2022-07-29T11:11:43.972Z,31.38
2022-07-29T11:13:57.057Z,31.36
2022-07-29T11:15:59.333Z,31.42
2022-07-29T11:18:03.886Z,31.47
2022-07-29T11:20:43.453Z,31.61
2022-07-29T11:22:47.361Z,31.55
2022-07-29T11:25:17.792Z,31.65
2022-07-29T11:27:21.991Z,31.65
2022-07-29T11:29:24.191Z,31.68
2022-07-29T11:31:44.366Z,31.80
2022-07-29T11:33:55.931Z,31.75
2022-07-29T11:36:16.651Z,31.59
2022-07-29T11:41:25.320Z,31.19
2022-07-29T11:43:50.600Z,31.07
2022-07-29T11:45:52.696Z,30.91
2022-07-29T11:48:28.955Z,30.91
2022-07-29T11:50:35.391Z,31.11
2022-07-29T11:52:49.683Z,31.31
2022-07-29T11:54:58.463Z,31.25
2022-07-29T11:57:02.573Z,31.16
2022-07-29T11:59:08.355Z,31.12
2022-07-29T12:01:15.082Z,31.25
2022-07-29T12:03:35.517Z,31.45
2022-07-29T12:05:48.418Z,31.52
2022-07-29T12:07:53.599Z,31.65
2022-07-29T12:09:56.813Z,31.78
2022-07-29T12:12:04.764Z,31.89
2022-07-29T12:14:07.084Z,32.01
2022-07-29T12:16:08.848Z,32.01
2022-07-29T12:18:18.936Z,32.05
2022-07-29T12:20:28.991Z,32.13
2022-07-29T12:22:41.374Z,32.06
2022-07-29T12:24:46.261Z,31.96
2022-07-29T12:26:56.040Z,31.93
2022-07-29T12:28:57.768Z,31.99
2022-07-29T12:31:04.846Z,32.14
2022-07-29T12:33:21.055Z,32.29
2022-07-29T12:35:23.139Z,32.30
2022-07-29T12:37:40.676Z,32.31
2022-07-29T12:39:44.602Z,32.21
2022-07-29T12:41:47.290Z,32.30
2022-07-29T12:43:55.469Z,32.41
2022-07-29T12:45:58.224Z,32.41
2022-07-29T12:48:00.037Z,32.42
2022-07-29T12:50:22.125Z,32.45
2022-07-29T12:52:30.660Z,32.50
2022-07-29T12:54:32.355Z,32.50
2022-07-29T12:56:43.702Z,32.49
2022-07-29T12:58:50.825Z,32.47
2022-07-29T13:01:01.371Z,32.51
2022-07-29T13:03:03.235Z,32.55
2022-07-29T13:05:09.923Z,32.51
2022-07-29T13:07:12.841Z,32.43
2022-07-29T13:09:19.213Z,32.30
2022-07-29T13:11:44.026Z,32.27
2022-07-29T13:14:03.140Z,32.32
2022-07-29T13:16:09.105Z,32.41
2022-07-29T13:18:33.189Z,32.46
2022-07-29T13:20:34.967Z,32.56
2022-07-29T13:22:37.060Z,32.56
2022-07-29T13:24:55.055Z,32.61
2022-07-29T13:26:56.795Z,32.64
2022-07-29T13:28:58.669Z,32.67
2022-07-29T13:31:00.832Z,32.66
2022-07-29T13:33:02.617Z,32.62
2022-07-29T13:35:08.809Z,32.65
2022-07-29T13:37:10.475Z,32.64
2022-07-29T13:39:13.647Z,32.65
2022-07-29T13:41:15.324Z,32.73
2022-07-29T13:43:17.053Z,32.65
2022-07-29T13:45:18.801Z,32.69
2022-07-29T13:47:21.428Z,32.72
2022-07-29T13:49:23.717Z,32.86
2022-07-29T13:51:25.493Z,32.87
2022-07-29T13:53:28.080Z,32.99
2022-07-29T13:55:29.733Z,32.98
2022-07-29T13:57:31.737Z,32.92
2022-07-29T13:59:33.545Z,32.97
2022-07-29T14:01:36.334Z,32.98
2022-07-29T14:03:41.755Z,32.91
2022-07-29T14:05:47.458Z,32.93
2022-07-29T14:07:49.283Z,33.03
2022-07-29T14:09:51.284Z,33.09
2022-07-29T14:11:53.883Z,33.15
2022-07-29T14:13:55.512Z,33.18
2022-07-29T14:15:57.152Z,33.18
2022-07-29T14:17:58.859Z,33.24
2022-07-29T14:20:00.509Z,33.28
2022-07-29T14:22:04.097Z,33.16
2022-07-29T14:24:09.288Z,33.14
2022-07-29T14:26:21.714Z,33.08
2022-07-29T14:28:26.011Z,32.98
2022-07-29T14:30:27.722Z,33.04
2022-07-29T14:32:30.181Z,33.16
2022-07-29T14:34:32.324Z,33.16
2022-07-29T14:36:33.982Z,33.20
2022-07-29T14:38:36.065Z,33.22
2022-07-29T14:40:37.842Z,33.19
2022-07-29T14:42:40.025Z,33.11
2022-07-29T14:44:42.577Z,33.19
2022-07-29T14:46:44.623Z,33.26
2022-07-29T14:48:50.262Z,33.44
2022-07-29T14:50:51.908Z,33.52
2022-07-29T14:52:54.105Z,33.55
2022-07-29T14:54:55.768Z,33.65
2022-07-29T14:56:58.321Z,33.74
2022-07-29T14:59:00.329Z,33.72
2022-07-29T15:01:02.251Z,33.55
2022-07-29T15:03:04.885Z,33.49
2022-07-29T15:05:06.919Z,33.44
2022-07-29T15:07:09.308Z,33.49
2022-07-29T15:09:11.117Z,33.47
2022-07-29T15:11:13.199Z,33.43
2022-07-29T15:13:14.822Z,33.41
2022-07-29T15:15:16.552Z,33.49
2022-07-29T15:17:18.230Z,33.58
2022-07-29T15:19:21.077Z,33.64
2022-07-29T15:21:22.772Z,33.67
2022-07-29T15:23:24.447Z,33.65
2022-07-29T15:25:28.376Z,33.56
2022-07-29T15:27:30.161Z,33.44
2022-07-29T15:29:31.859Z,33.36
2022-07-29T15:31:33.579Z,33.32
2022-07-29T15:33:35.215Z,33.27
2022-07-29T15:35:40.586Z,33.24
2022-07-29T15:37:49.107Z,33.20
2022-07-29T15:39:51.355Z,32.99
2022-07-29T15:41:53.302Z,32.72
2022-07-29T17:13:47.969Z,28.60
2022-07-29T17:15:49.842Z,28.79
2022-07-29T17:17:55.007Z,29.00
2022-07-29T17:19:57.624Z,29.16
2022-07-29T17:22:07.003Z,29.27
2022-07-29T17:24:12.062Z,29.34
2022-07-29T17:26:13.854Z,29.40
2022-07-29T17:28:15.864Z,29.39
2022-07-29T17:30:18.361Z,29.36
2022-07-29T17:32:20.115Z,29.29
2022-07-29T17:34:21.817Z,29.20
2022-07-29T17:36:23.789Z,29.13
2022-07-29T17:38:25.568Z,29.10
2022-07-29T17:40:27.529Z,29.02
2022-07-29T17:42:29.183Z,28.95
2022-07-29T17:44:31.026Z,28.86
2022-07-29T17:46:33.963Z,28.77
2022-07-29T17:48:36.316Z,28.73
2022-07-29T17:50:38.105Z,28.64
2022-07-29T17:52:40.841Z,28.56
2022-07-29T17:54:42.486Z,28.53
2022-07-29T17:56:44.114Z,28.49
2022-07-29T17:58:47.563Z,28.46
2022-07-29T18:00:49.420Z,28.41
2022-07-29T18:02:51.150Z,28.35
2022-07-29T18:04:53.017Z,28.31
2022-07-29T18:06:54.688Z,28.28
2022-07-29T18:08:56.400Z,28.23
2022-07-29T18:10:58.077Z,28.19
2022-07-29T18:12:59.774Z,28.18
2022-07-29T18:15:01.431Z,28.16
2022-07-29T18:17:03.252Z,28.16
2022-07-29T18:19:04.970Z,28.13
2022-07-29T18:21:07.068Z,28.13
2022-07-29T18:23:08.931Z,28.12
2022-07-29T18:25:11.951Z,28.11
2022-07-29T18:27:13.648Z,28.11
2022-07-29T18:29:15.335Z,28.09
2022-07-29T18:31:17.087Z,28.09
2022-07-29T18:33:21.703Z,28.06
2022-07-29T18:35:24.206Z,28.06
2022-07-29T18:38:02.283Z,28.04
2022-07-29T18:39:47.470Z,28.04
2022-07-29T18:41:51.349Z,28.02
2022-07-29T18:43:53.256Z,27.96
2022-07-29T18:45:56.351Z,27.94
2022-07-29T18:47:58.849Z,27.94
2022-07-29T18:50:00.812Z,27.91
2022-07-29T18:52:02.479Z,27.90
2022-07-29T18:54:05.601Z,27.90
2022-07-29T18:56:07.265Z,27.83
2022-07-29T18:58:08.887Z,27.76
2022-07-29T19:00:12.000Z,27.73
2022-07-29T19:02:16.661Z,27.73
2022-07-29T19:04:18.823Z,27.71
2022-07-29T19:06:24.060Z,27.69
2022-07-29T19:08:27.443Z,27.66
2022-07-29T19:10:29.592Z,27.67
2022-07-29T19:12:31.412Z,27.67
2022-07-29T19:14:33.107Z,27.66
2022-07-29T19:16:35.040Z,27.64
2022-07-29T19:18:36.739Z,27.58
2022-07-29T19:20:39.172Z,27.52
2022-07-29T19:22:40.853Z,27.50
2022-07-29T19:24:42.585Z,27.51
2022-07-29T19:26:47.060Z,27.52
2022-07-29T19:28:49.221Z,27.46
2022-07-29T19:30:51.171Z,27.45
2022-07-29T19:32:52.838Z,27.45
2022-07-29T19:35:13.286Z,27.44
2022-07-29T19:37:14.952Z,27.40
2022-07-29T19:39:16.597Z,27.33
2022-07-29T19:41:18.304Z,27.17
2022-07-29T19:43:49.525Z,27.15
2022-07-29T19:45:41.714Z,27.14
2022-07-29T19:47:43.631Z,27.14
2022-07-29T19:49:45.343Z,27.16
2022-07-29T19:51:46.960Z,27.19
2022-07-29T19:53:49.468Z,27.17
2022-07-29T19:55:51.150Z,27.09
2022-07-29T19:57:53.206Z,27.04
2022-07-29T19:59:54.861Z,27.01
2022-07-29T20:01:57.952Z,27.03
2022-07-29T20:03:59.731Z,26.96
2022-07-29T20:06:01.435Z,26.94
2022-07-29T20:08:04.880Z,26.90
2022-07-29T20:10:06.877Z,26.83
2022-07-29T20:12:09.584Z,26.82
2022-07-29T20:14:11.338Z,26.82
2022-07-29T20:16:13.117Z,26.82
2022-07-29T20:18:16.085Z,26.79
2022-07-29T20:20:17.795Z,26.72
2022-07-29T20:22:20.978Z,26.70
2022-07-29T20:24:23.272Z,26.71
2022-07-29T20:26:24.903Z,26.71
2022-07-29T20:28:26.633Z,26.61
2022-07-29T20:30:28.290Z,26.63
2022-07-29T20:32:31.136Z,26.67
2022-07-29T20:34:32.935Z,26.65
2022-07-29T20:36:34.538Z,26.63
2022-07-29T20:38:36.277Z,26.57
2022-07-29T20:40:39.538Z,26.54
2022-07-29T20:42:41.191Z,26.49
2022-07-29T20:44:42.913Z,26.46
2022-07-29T20:46:45.547Z,26.44
2022-07-29T20:48:47.426Z,26.41
2022-07-29T20:50:49.191Z,26.40
2022-07-29T20:52:51.760Z,26.36
2022-07-29T20:54:53.454Z,26.38
2022-07-29T20:56:55.117Z,26.38
2022-07-29T20:58:56.841Z,26.35
2022-07-29T21:00:58.524Z,26.36
2022-07-29T21:03:01.801Z,26.33
2022-07-29T21:05:03.686Z,26.35
2022-07-29T21:07:06.242Z,26.32
2022-07-29T21:09:07.913Z,26.26
2022-07-29T21:11:09.891Z,26.23
2022-07-29T21:13:11.707Z,26.21
2022-07-29T21:15:17.505Z,26.13
2022-07-29T21:17:22.658Z,26.11
2022-07-29T21:19:24.440Z,26.07
2022-07-29T21:21:26.959Z,26.02
2022-07-29T21:23:28.608Z,25.99
2022-07-29T21:25:30.239Z,26.00
2022-07-29T21:27:50.612Z,25.99
2022-07-29T21:29:52.354Z,26.00
2022-07-29T21:31:53.983Z,25.97
2022-07-29T21:33:55.834Z,25.98
2022-07-29T21:38:21.933Z,26.00
2022-07-29T21:40:23.622Z,26.00
2022-07-29T21:42:25.408Z,25.97
2022-07-29T21:44:27.238Z,25.97
2022-07-29T21:46:29.043Z,26.00
2022-07-29T21:48:30.786Z,25.97
2022-07-29T21:50:33.171Z,25.91
2022-07-29T21:52:34.858Z,25.91
2022-07-29T21:54:39.122Z,25.89
2022-07-29T21:56:40.721Z,25.89
2022-07-29T21:58:43.469Z,25.87
2022-07-29T22:00:45.478Z,25.80
2022-07-29T22:02:47.965Z,25.77
2022-07-29T22:04:50.646Z,25.75
2022-07-29T22:06:52.414Z,25.73
2022-07-29T22:08:54.056Z,25.71
2022-07-29T22:10:55.692Z,25.71
2022-07-29T22:12:58.981Z,25.67
2022-07-29T22:15:02.262Z,25.67
2022-07-29T22:17:04.207Z,25.62
2022-07-29T22:19:05.927Z,25.58
2022-07-29T22:21:07.959Z,25.58
2022-07-29T22:23:09.623Z,25.61
2022-07-29T22:25:11.533Z,25.55
2022-07-29T22:27:13.800Z,25.54
2022-07-29T22:29:17.714Z,25.54
2022-07-29T22:31:19.453Z,25.48
2022-07-29T22:33:21.156Z,25.48
2022-07-29T22:35:22.787Z,25.46
2022-07-29T22:37:24.454Z,25.46
2022-07-29T22:39:26.187Z,25.42
2022-07-29T22:41:27.877Z,25.37
2022-07-29T22:43:29.638Z,25.38
2022-07-29T22:45:31.396Z,25.42
2022-07-29T22:47:46.422Z,25.45
2022-07-29T22:49:50.252Z,25.46
2022-07-29T22:51:51.928Z,25.40
2022-07-29T22:53:53.690Z,25.38
2022-07-29T22:55:55.380Z,25.36
2022-07-29T22:57:57.036Z,25.37
2022-07-29T23:00:01.642Z,25.24
2022-07-29T23:02:03.611Z,25.23
2022-07-29T23:04:06.162Z,25.23
2022-07-29T23:06:08.230Z,25.20
2022-07-29T23:08:09.845Z,25.14
2022-07-29T23:10:11.935Z,25.14
2022-07-29T23:12:13.656Z,25.13
2022-07-29T23:14:15.300Z,25.18
2022-07-29T23:16:26.296Z,25.23
2022-07-29T23:18:28.721Z,25.18
2022-07-29T23:20:30.522Z,25.14
2022-07-29T23:22:32.161Z,25.14
2022-07-29T23:24:33.833Z,25.07
2022-07-29T23:26:36.934Z,25.00
2022-07-29T23:28:38.599Z,25.01
2022-07-29T23:30:41.619Z,24.98
2022-07-29T23:32:43.278Z,25.02
2022-07-29T23:34:44.887Z,25.03
2022-07-29T23:36:46.791Z,25.02
2022-07-29T23:38:48.561Z,25.06
2022-07-29T23:40:50.825Z,25.08
2022-07-29T23:42:52.550Z,25.11
2022-07-29T23:44:54.238Z,25.13
2022-07-29T23:46:55.966Z,25.13
2022-07-29T23:48:57.663Z,25.14
2022-07-29T23:51:01.215Z,25.16
2022-07-29T23:53:02.927Z,25.16
2022-07-29T23:55:36.686Z,25.16
2022-07-29T23:57:27.413Z,25.16
2022-07-29T23:59:29.034Z,25.16
